createdAt,value
2022-10-04T00:00:40.384Z,1015.27
2022-10-04T00:01:40.807Z,1015.37
2022-10-04T00:02:41.319Z,1015.38
2022-10-04T00:03:40.416Z,1015.38
2022-10-04T00:04:40.348Z,1015.40
2022-10-04T00:05:40.436Z,1015.41
2022-10-04T00:06:40.290Z,1015.32
2022-10-04T00:07:40.326Z,1015.29
2022-10-04T00:08:40.221Z,1015.21
2022-10-04T00:09:40.238Z,1015.25
2022-10-04T00:10:40.193Z,1015.24
2022-10-04T00:11:40.413Z,1015.26
2022-10-04T00:12:40.143Z,1015.27
2022-10-04T00:13:40.116Z,1015.26
2022-10-04T00:14:40.103Z,1015.21
2022-10-04T00:15:40.104Z,1015.18
2022-10-04T00:16:40.282Z,1015.21
2022-10-04T00:17:40.096Z,1015.25
2022-10-04T00:18:40.067Z,1015.29
2022-10-04T00:19:40.059Z,1015.34
2022-10-04T00:20:40.069Z,1015.42
2022-10-04T00:21:40.313Z,1015.44
2022-10-04T00:22:40.041Z,1015.40
2022-10-04T00:23:40.109Z,1015.40
2022-10-04T00:24:40.080Z,1015.35
2022-10-04T00:25:40.257Z,1015.33
2022-10-04T00:26:39.987Z,1015.31
2022-10-04T00:27:39.977Z,1015.25
2022-10-04T00:28:39.961Z,1015.21
2022-10-04T00:29:39.945Z,1015.20
2022-10-04T00:30:39.951Z,1015.19
2022-10-04T00:31:40.198Z,1015.19
2022-10-04T00:32:39.933Z,1015.22
2022-10-04T00:33:39.906Z,1015.22
2022-10-04T00:34:39.890Z,1015.21
2022-10-04T00:35:39.886Z,1015.27
2022-10-04T00:36:39.887Z,1015.29
2022-10-04T00:37:39.870Z,1015.28
2022-10-04T00:38:39.874Z,1015.31
2022-10-04T00:39:39.853Z,1015.29
2022-10-04T00:40:39.827Z,1015.35
2022-10-04T00:41:40.202Z,1015.30
2022-10-04T00:42:39.808Z,1015.33
2022-10-04T00:43:39.800Z,1015.28
2022-10-04T00:44:39.782Z,1015.26
2022-10-04T00:45:39.777Z,1015.22
2022-10-04T00:46:39.752Z,1015.19
2022-10-04T00:47:39.759Z,1015.19
2022-10-04T00:48:39.760Z,1015.20
2022-10-04T00:49:39.731Z,1015.14
2022-10-04T00:50:39.713Z,1015.11
2022-10-04T00:51:39.888Z,1015.18
2022-10-04T00:52:39.715Z,1015.09
2022-10-04T00:53:39.696Z,1015.09
2022-10-04T00:54:39.698Z,1015.02
2022-10-04T00:55:39.667Z,1015.01
2022-10-04T00:56:39.770Z,1015.02
2022-10-04T00:57:39.646Z,1015.01
2022-10-04T00:58:39.636Z,1014.99
2022-10-04T00:59:39.650Z,1014.97
2022-10-04T01:00:39.692Z,1014.97
2022-10-04T01:01:39.678Z,1014.88
2022-10-04T01:02:39.626Z,1014.88
2022-10-04T01:03:39.598Z,1014.87
2022-10-04T01:04:39.577Z,1014.89
2022-10-04T01:05:39.570Z,1014.90
2022-10-04T01:06:39.573Z,1014.90
2022-10-04T01:07:39.551Z,1014.89
2022-10-04T01:08:39.527Z,1014.90
2022-10-04T01:09:39.540Z,1014.91
2022-10-04T01:10:39.505Z,1014.92
2022-10-04T01:11:39.788Z,1014.91
2022-10-04T01:12:39.496Z,1014.91
2022-10-04T01:13:39.480Z,1014.87
2022-10-04T01:14:39.449Z,1014.89
2022-10-04T01:15:39.520Z,1014.85
2022-10-04T01:16:39.467Z,1014.81
2022-10-04T01:17:39.417Z,1014.82
2022-10-04T01:18:39.409Z,1014.87
2022-10-04T01:19:39.399Z,1014.84
2022-10-04T01:20:39.395Z,1014.87
2022-10-04T01:21:39.519Z,1014.84
2022-10-04T01:22:39.408Z,1014.83
2022-10-04T01:23:39.359Z,1014.77
2022-10-04T01:24:39.359Z,1014.78
2022-10-04T01:25:39.346Z,1014.74
2022-10-04T01:26:39.332Z,1014.73
2022-10-04T01:27:39.499Z,1014.73
2022-10-04T01:28:39.308Z,1014.77
2022-10-04T01:29:39.295Z,1014.82
2022-10-04T01:30:39.296Z,1014.84
2022-10-04T01:31:39.426Z,1014.86
2022-10-04T01:32:39.279Z,1014.83
2022-10-04T01:33:39.249Z,1014.79
2022-10-04T01:34:39.276Z,1014.77
2022-10-04T01:35:39.242Z,1014.78
2022-10-04T01:36:39.238Z,1014.72
2022-10-04T01:37:39.215Z,1014.71
2022-10-04T01:38:39.185Z,1014.71
2022-10-04T01:39:39.211Z,1014.68
2022-10-04T01:40:39.203Z,1014.68
2022-10-04T01:41:39.296Z,1014.70
2022-10-04T01:42:39.195Z,1014.67
2022-10-04T01:43:39.166Z,1014.70
2022-10-04T01:44:39.157Z,1014.73
2022-10-04T01:45:39.125Z,1014.72
2022-10-04T01:46:39.294Z,1014.68
2022-10-04T01:47:39.095Z,1014.65
2022-10-04T01:48:39.083Z,1014.64
2022-10-04T01:49:39.094Z,1014.58
2022-10-04T01:50:39.075Z,1014.56
2022-10-04T01:51:39.258Z,1014.51
2022-10-04T01:52:39.061Z,1014.55
2022-10-04T01:53:39.049Z,1014.56
2022-10-04T01:54:39.047Z,1014.58
2022-10-04T01:55:39.055Z,1014.59
2022-10-04T01:56:39.018Z,1014.58
2022-10-04T01:57:39.026Z,1014.52
2022-10-04T01:58:39.139Z,1014.50
2022-10-04T01:59:38.964Z,1014.52
2022-10-04T02:00:38.968Z,1014.50
2022-10-04T02:01:39.007Z,1014.53
2022-10-04T02:02:38.953Z,1014.57
2022-10-04T02:03:38.977Z,1014.51
2022-10-04T02:04:39.026Z,1014.51
2022-10-04T02:05:38.919Z,1014.53
2022-10-04T02:06:38.896Z,1014.53
2022-10-04T02:07:38.893Z,1014.52
2022-10-04T02:08:38.874Z,1014.59
2022-10-04T02:09:38.871Z,1014.55
2022-10-04T02:10:43.218Z,1014.54
2022-10-04T02:11:38.847Z,1014.48
2022-10-04T02:12:38.851Z,1014.55
2022-10-04T02:13:38.813Z,1014.52
2022-10-04T02:14:38.785Z,1014.48
2022-10-04T02:15:38.845Z,1014.51
2022-10-04T02:16:38.787Z,1014.48
2022-10-04T02:17:38.778Z,1014.44
2022-10-04T02:18:38.750Z,1014.41
2022-10-04T02:19:38.740Z,1014.39
2022-10-04T02:20:38.747Z,1014.34
2022-10-04T02:21:38.744Z,1014.33
2022-10-04T02:22:38.743Z,1014.34
2022-10-04T02:23:38.709Z,1014.36
2022-10-04T02:24:38.688Z,1014.34
2022-10-04T02:25:38.681Z,1014.38
2022-10-04T02:26:38.668Z,1014.40
2022-10-04T02:27:38.716Z,1014.35
2022-10-04T02:28:38.656Z,1014.36
2022-10-04T02:29:39.372Z,1014.29
2022-10-04T02:30:38.622Z,1014.29
2022-10-04T02:31:38.655Z,1014.26
2022-10-04T02:32:38.615Z,1014.28
2022-10-04T02:33:38.621Z,1014.28
2022-10-04T02:34:38.587Z,1014.28
2022-10-04T02:35:38.603Z,1014.28
2022-10-04T02:36:38.574Z,1014.26
2022-10-04T02:37:38.560Z,1014.28
2022-10-04T02:38:38.536Z,1014.24
2022-10-04T02:39:38.553Z,1014.23
2022-10-04T02:40:38.535Z,1014.20
2022-10-04T02:41:38.515Z,1014.19
2022-10-04T02:42:38.526Z,1014.19
2022-10-04T02:43:38.493Z,1014.15
2022-10-04T02:44:38.479Z,1014.14
2022-10-04T02:45:38.509Z,1014.11
2022-10-04T02:46:38.567Z,1014.14
2022-10-04T02:47:38.425Z,1014.11
2022-10-04T02:48:38.469Z,1014.03
2022-10-04T02:49:38.428Z,1014.09
2022-10-04T02:50:38.425Z,1014.09
2022-10-04T02:51:38.395Z,1014.12
2022-10-04T02:52:38.399Z,1014.13
2022-10-04T02:53:38.387Z,1014.14
2022-10-04T02:54:38.416Z,1014.18
2022-10-04T02:55:38.355Z,1014.21
2022-10-04T02:56:38.351Z,1014.24
2022-10-04T02:57:38.342Z,1014.20
2022-10-04T02:58:38.339Z,1014.16
2022-10-04T02:59:38.319Z,1014.15
2022-10-04T03:00:38.404Z,1014.17
2022-10-04T03:01:38.332Z,1014.08
2022-10-04T03:02:38.295Z,1014.16
2022-10-04T03:03:38.269Z,1014.11
2022-10-04T03:04:38.261Z,1014.09
2022-10-04T03:05:38.277Z,1014.11
2022-10-04T03:06:47.833Z,1014.07
2022-10-04T03:07:38.928Z,1014.05
2022-10-04T03:08:38.940Z,1014.09
2022-10-04T03:09:38.971Z,1014.09
2022-10-04T03:10:38.196Z,1014.07
2022-10-04T03:11:46.689Z,1014.08
2022-10-04T03:12:38.158Z,1014.06
2022-10-04T03:13:38.170Z,1014.07
2022-10-04T03:14:38.139Z,1014.06
2022-10-04T03:15:38.137Z,1014.08
2022-10-04T03:16:38.183Z,1014.06
2022-10-04T03:17:38.122Z,1014.04
2022-10-04T03:18:38.105Z,1014.01
2022-10-04T03:19:38.102Z,1013.96
2022-10-04T03:20:38.107Z,1013.98
2022-10-04T03:21:38.068Z,1013.99
2022-10-04T03:22:38.075Z,1013.95
2022-10-04T03:23:38.046Z,1013.93
2022-10-04T03:24:38.047Z,1013.93
2022-10-04T03:25:38.048Z,1013.90
2022-10-04T03:26:38.143Z,1013.93
2022-10-04T03:27:38.020Z,1013.93
2022-10-04T03:28:38.086Z,1013.92
2022-10-04T03:29:37.983Z,1013.89
2022-10-04T03:30:37.989Z,1013.90
2022-10-04T03:31:38.198Z,1013.86
2022-10-04T03:32:37.977Z,1013.87
2022-10-04T03:33:37.952Z,1013.85
2022-10-04T03:34:37.948Z,1013.81
2022-10-04T03:35:37.946Z,1013.81
2022-10-04T03:36:37.949Z,1013.77
2022-10-04T03:37:37.886Z,1013.77
2022-10-04T03:38:37.888Z,1013.78
2022-10-04T03:39:37.874Z,1013.77
2022-10-04T03:40:37.884Z,1013.80
2022-10-04T03:41:37.861Z,1013.76
2022-10-04T03:42:37.851Z,1013.77
2022-10-04T03:43:37.838Z,1013.71
2022-10-04T03:44:37.821Z,1013.74
2022-10-04T03:45:37.875Z,1013.71
2022-10-04T03:46:37.872Z,1013.74
2022-10-04T03:47:37.796Z,1013.73
2022-10-04T03:48:37.784Z,1013.71
2022-10-04T03:49:37.779Z,1013.71
2022-10-04T03:50:37.745Z,1013.71
2022-10-04T03:51:37.746Z,1013.72
2022-10-04T03:52:37.728Z,1013.71
2022-10-04T03:53:37.739Z,1013.71
2022-10-04T03:54:37.705Z,1013.70
2022-10-04T03:55:37.717Z,1013.71
2022-10-04T03:56:37.731Z,1013.69
2022-10-04T03:57:37.684Z,1013.76
2022-10-04T03:58:37.659Z,1013.70
2022-10-04T03:59:37.678Z,1013.67
2022-10-04T04:00:37.658Z,1013.72
2022-10-04T04:01:37.786Z,1013.68
2022-10-04T04:02:40.358Z,1013.69
2022-10-04T04:03:37.616Z,1013.73
2022-10-04T04:04:37.596Z,1013.70
2022-10-04T04:05:37.612Z,1013.71
2022-10-04T04:06:37.648Z,1013.72
2022-10-04T04:07:37.569Z,1013.70
2022-10-04T04:08:37.556Z,1013.64
2022-10-04T04:09:37.587Z,1013.63
2022-10-04T04:10:37.566Z,1013.60
2022-10-04T04:11:37.555Z,1013.62
2022-10-04T04:12:37.516Z,1013.60
2022-10-04T04:13:37.515Z,1013.56
2022-10-04T04:14:37.492Z,1013.59
2022-10-04T04:15:37.479Z,1013.59
2022-10-04T04:16:37.571Z,1013.61
2022-10-04T04:17:37.470Z,1013.66
2022-10-04T04:18:37.451Z,1013.61
2022-10-04T04:19:37.444Z,1013.61
2022-10-04T04:20:37.424Z,1013.63
2022-10-04T04:21:37.417Z,1013.64
2022-10-04T04:22:37.432Z,1013.65
2022-10-04T04:23:37.418Z,1013.62
2022-10-04T04:24:37.398Z,1013.62
2022-10-04T04:25:37.374Z,1013.63
2022-10-04T04:26:37.453Z,1013.60
2022-10-04T04:27:37.359Z,1013.65
2022-10-04T04:28:37.444Z,1013.64
2022-10-04T04:29:37.325Z,1013.65
2022-10-04T04:30:37.316Z,1013.68
2022-10-04T04:31:37.313Z,1013.62
2022-10-04T04:32:37.311Z,1013.65
2022-10-04T04:33:37.535Z,1013.69
2022-10-04T04:34:37.284Z,1013.71
2022-10-04T04:35:37.265Z,1013.68
2022-10-04T04:36:37.247Z,1013.71
2022-10-04T04:37:37.242Z,1013.69
2022-10-04T04:38:37.229Z,1013.70
2022-10-04T04:39:37.351Z,1013.68
2022-10-04T04:40:37.221Z,1013.71
2022-10-04T04:41:37.207Z,1013.71
2022-10-04T04:42:37.188Z,1013.69
2022-10-04T04:43:37.175Z,1013.74
2022-10-04T04:44:37.158Z,1013.72
2022-10-04T04:45:37.209Z,1013.71
2022-10-04T04:46:37.184Z,1013.77
2022-10-04T04:47:37.150Z,1013.77
2022-10-04T04:48:37.107Z,1013.74
2022-10-04T04:49:37.105Z,1013.76
2022-10-04T04:50:37.107Z,1013.78
2022-10-04T04:51:37.093Z,1013.80
2022-10-04T04:52:37.099Z,1013.78
2022-10-04T04:53:37.065Z,1013.80
2022-10-04T04:54:37.051Z,1013.82
2022-10-04T04:55:56.698Z,1013.77
2022-10-04T04:56:38.062Z,1013.84
2022-10-04T04:57:37.014Z,1013.76
2022-10-04T04:58:37.010Z,1013.74
2022-10-04T04:59:37.005Z,1013.71
2022-10-04T05:00:36.993Z,1013.71
2022-10-04T05:01:36.969Z,1013.69
2022-10-04T05:02:37.007Z,1013.67
2022-10-04T05:03:36.976Z,1013.65
2022-10-04T05:04:36.957Z,1013.62
2022-10-04T05:05:36.933Z,1013.61
2022-10-04T05:06:36.929Z,1013.65
2022-10-04T05:07:36.916Z,1013.66
2022-10-04T05:08:41.225Z,1013.67
2022-10-04T05:09:36.919Z,1013.66
2022-10-04T05:10:36.884Z,1013.70
2022-10-04T05:11:36.880Z,1013.66
2022-10-04T05:12:36.856Z,1013.66
2022-10-04T05:13:36.838Z,1013.63
2022-10-04T05:14:36.838Z,1013.61
2022-10-04T05:15:36.842Z,1013.62
2022-10-04T05:16:36.864Z,1013.60
2022-10-04T05:17:36.816Z,1013.60
2022-10-04T05:18:36.884Z,1013.59
2022-10-04T05:19:36.773Z,1013.57
2022-10-04T05:20:36.788Z,1013.57
2022-10-04T05:21:40.799Z,1013.61
2022-10-04T05:22:37.740Z,1013.59
2022-10-04T05:23:36.739Z,1013.60
2022-10-04T05:24:36.720Z,1013.54
2022-10-04T05:25:36.732Z,1013.57
2022-10-04T05:26:36.722Z,1013.54
2022-10-04T05:27:36.714Z,1013.52
2022-10-04T05:28:36.754Z,1013.55
2022-10-04T05:29:36.680Z,1013.52
2022-10-04T05:30:36.676Z,1013.48
2022-10-04T05:31:36.727Z,1013.57
2022-10-04T05:32:36.656Z,1013.57
2022-10-04T05:33:36.638Z,1013.53
2022-10-04T05:34:36.827Z,1013.52
2022-10-04T05:35:36.611Z,1013.52
2022-10-04T05:36:36.590Z,1013.55
2022-10-04T05:37:36.588Z,1013.52
2022-10-04T05:38:36.590Z,1013.49
2022-10-04T05:39:36.576Z,1013.49
2022-10-04T05:40:36.557Z,1013.50
2022-10-04T05:41:36.557Z,1013.51
2022-10-04T05:42:36.529Z,1013.52
2022-10-04T05:43:36.577Z,1013.56
2022-10-04T05:44:36.512Z,1013.55
2022-10-04T05:45:36.544Z,1013.49
2022-10-04T05:46:38.779Z,1013.57
2022-10-04T05:47:37.478Z,1013.54
2022-10-04T05:48:36.469Z,1013.53
2022-10-04T05:49:36.477Z,1013.55
2022-10-04T05:50:36.453Z,1013.55
2022-10-04T05:51:36.434Z,1013.58
2022-10-04T05:52:36.426Z,1013.59
2022-10-04T05:53:36.416Z,1013.60
2022-10-04T05:54:36.393Z,1013.61
2022-10-04T05:55:36.394Z,1013.61
2022-10-04T05:56:36.384Z,1013.56
2022-10-04T05:57:36.371Z,1013.57
2022-10-04T05:58:36.371Z,1013.64
2022-10-04T05:59:36.343Z,1013.57
2022-10-04T06:00:36.334Z,1013.57
2022-10-04T06:01:36.390Z,1013.57
2022-10-04T06:02:36.383Z,1013.60
2022-10-04T06:03:36.319Z,1013.67
2022-10-04T06:04:36.299Z,1013.68
2022-10-04T06:05:36.365Z,1013.68
2022-10-04T06:06:36.265Z,1013.69
2022-10-04T06:07:36.266Z,1013.66
2022-10-04T06:08:36.258Z,1013.72
2022-10-04T06:09:36.254Z,1013.75
2022-10-04T06:10:36.220Z,1013.73
2022-10-04T06:11:36.226Z,1013.71
2022-10-04T06:12:36.198Z,1013.66
2022-10-04T06:13:36.199Z,1013.70
2022-10-04T06:14:36.185Z,1013.72
2022-10-04T06:15:36.176Z,1013.72
2022-10-04T06:16:36.212Z,1013.69
2022-10-04T06:17:36.158Z,1013.69
2022-10-04T06:18:36.134Z,1013.67
2022-10-04T06:19:36.122Z,1013.67
2022-10-04T06:20:36.105Z,1013.65
2022-10-04T06:21:36.112Z,1013.68
2022-10-04T06:22:36.098Z,1013.68
2022-10-04T06:23:36.079Z,1013.65
2022-10-04T06:24:36.107Z,1013.68
2022-10-04T06:25:36.061Z,1013.67
2022-10-04T06:26:36.050Z,1013.67
2022-10-04T06:27:36.034Z,1013.69
2022-10-04T06:28:36.082Z,1013.66
2022-10-04T06:29:36.022Z,1013.66
2022-10-04T06:30:36.072Z,1013.67
2022-10-04T06:31:35.999Z,1013.66
2022-10-04T06:32:36.014Z,1013.64
2022-10-04T06:33:35.965Z,1013.56
2022-10-04T06:34:35.957Z,1013.58
2022-10-04T06:35:35.953Z,1013.57
2022-10-04T06:36:36.009Z,1013.57
2022-10-04T06:37:35.936Z,1013.55
2022-10-04T06:38:35.917Z,1013.56
2022-10-04T06:39:35.928Z,1013.55
2022-10-04T06:40:35.904Z,1013.57
2022-10-04T06:41:35.892Z,1013.56
2022-10-04T06:42:35.876Z,1013.55
2022-10-04T06:43:35.876Z,1013.56
2022-10-04T06:44:35.864Z,1013.49
2022-10-04T06:45:35.854Z,1013.48
2022-10-04T06:46:35.960Z,1013.51
2022-10-04T06:47:35.836Z,1013.52
2022-10-04T06:48:35.818Z,1013.52
2022-10-04T06:49:35.829Z,1013.49
2022-10-04T06:50:35.799Z,1013.48
2022-10-04T06:51:35.797Z,1013.42
2022-10-04T06:52:35.782Z,1013.45
2022-10-04T06:53:35.759Z,1013.42
2022-10-04T06:54:35.748Z,1013.37
2022-10-04T06:55:35.745Z,1013.39
2022-10-04T06:56:35.726Z,1013.37
2022-10-04T06:57:35.721Z,1013.39
2022-10-04T06:58:35.708Z,1013.42
2022-10-04T06:59:35.721Z,1013.41
2022-10-04T07:00:35.685Z,1013.42
2022-10-04T07:01:35.710Z,1013.44
2022-10-04T07:02:35.731Z,1013.47
2022-10-04T07:03:35.676Z,1013.45
2022-10-04T07:05:03.227Z,1013.46
2022-10-04T07:05:36.639Z,1013.51
2022-10-04T07:06:35.647Z,1013.55
2022-10-04T07:07:35.782Z,1013.59
2022-10-04T07:08:35.601Z,1013.58
2022-10-04T07:09:35.596Z,1013.54
2022-10-04T07:10:35.568Z,1013.57
2022-10-04T07:11:35.547Z,1013.54
2022-10-04T07:12:35.549Z,1013.53
2022-10-04T07:13:35.534Z,1013.52
2022-10-04T07:14:35.542Z,1013.59
2022-10-04T07:15:35.590Z,1013.57
2022-10-04T07:16:35.498Z,1013.58
2022-10-04T07:17:35.489Z,1013.53
2022-10-04T07:18:35.480Z,1013.48
2022-10-04T07:19:35.470Z,1013.45
2022-10-04T07:20:35.465Z,1013.45
2022-10-04T07:21:35.469Z,1013.46
2022-10-04T07:22:35.449Z,1013.48
2022-10-04T07:23:35.451Z,1013.49
2022-10-04T07:24:35.428Z,1013.51
2022-10-04T07:25:35.418Z,1013.52
2022-10-04T07:26:35.394Z,1013.50
2022-10-04T07:27:35.380Z,1013.55
2022-10-04T07:28:35.474Z,1013.55
2022-10-04T07:29:39.927Z,1013.60
2022-10-04T07:30:36.437Z,1013.56
2022-10-04T07:31:35.341Z,1013.57
2022-10-04T07:32:35.340Z,1013.57
2022-10-04T07:33:35.351Z,1013.57
2022-10-04T07:34:35.328Z,1013.57
2022-10-04T07:35:35.310Z,1013.52
2022-10-04T07:36:35.275Z,1013.54
2022-10-04T07:37:35.276Z,1013.60
2022-10-04T07:38:35.493Z,1013.54
2022-10-04T07:39:35.269Z,1013.53
2022-10-04T07:40:35.255Z,1013.52
2022-10-04T07:41:35.231Z,1013.55
2022-10-04T07:42:35.236Z,1013.54
2022-10-04T07:43:35.202Z,1013.61
2022-10-04T07:44:35.219Z,1013.63
2022-10-04T07:45:35.192Z,1013.65
2022-10-04T07:46:35.243Z,1013.67
2022-10-04T07:47:35.188Z,1013.62
2022-10-04T07:48:35.183Z,1013.60
2022-10-04T07:49:35.273Z,1013.56
2022-10-04T07:50:35.140Z,1013.63
2022-10-04T07:51:35.131Z,1013.65
2022-10-04T07:52:35.114Z,1013.64
2022-10-04T07:53:35.114Z,1013.66
2022-10-04T07:54:35.126Z,1013.67
2022-10-04T07:55:35.072Z,1013.64
2022-10-04T07:56:35.068Z,1013.65
2022-10-04T07:57:35.077Z,1013.63
2022-10-04T07:58:35.050Z,1013.57
2022-10-04T07:59:35.090Z,1013.57
2022-10-04T08:00:35.032Z,1013.58
2022-10-04T08:01:35.077Z,1013.59
2022-10-04T08:02:35.082Z,1013.58
2022-10-04T08:03:35.088Z,1013.65
2022-10-04T08:04:35.002Z,1013.63
2022-10-04T08:05:35.006Z,1013.68
2022-10-04T08:06:34.958Z,1013.69
2022-10-04T08:07:34.939Z,1013.68
2022-10-04T08:08:34.970Z,1013.69
2022-10-04T08:09:34.948Z,1013.61
2022-10-04T08:10:34.952Z,1013.63
2022-10-04T08:11:34.904Z,1013.65
2022-10-04T08:12:34.880Z,1013.64
2022-10-04T08:13:34.876Z,1013.66
2022-10-04T08:14:34.861Z,1013.64
2022-10-04T08:15:34.917Z,1013.66
2022-10-04T08:16:34.849Z,1013.62
2022-10-04T08:17:34.826Z,1013.63
2022-10-04T08:18:34.886Z,1013.65
2022-10-04T08:19:34.818Z,1013.59
2022-10-04T08:20:34.804Z,1013.63
2022-10-04T08:21:34.828Z,1013.59
2022-10-04T08:22:34.792Z,1013.60
2022-10-04T08:23:34.794Z,1013.59
2022-10-04T08:24:34.763Z,1013.63
2022-10-04T08:25:34.790Z,1013.60
2022-10-04T08:26:34.747Z,1013.59
2022-10-04T08:27:34.722Z,1013.59
2022-10-04T08:28:34.783Z,1013.59
2022-10-04T08:29:34.719Z,1013.61
2022-10-04T08:30:34.700Z,1013.59
2022-10-04T08:31:34.728Z,1013.60
2022-10-04T08:32:34.733Z,1013.53
2022-10-04T08:33:34.709Z,1013.55
2022-10-04T08:34:34.658Z,1013.52
2022-10-04T08:35:34.641Z,1013.54
2022-10-04T08:36:34.641Z,1013.56
2022-10-04T08:37:34.614Z,1013.47
2022-10-04T08:38:34.603Z,1013.51
2022-10-04T08:39:35.544Z,1013.53
2022-10-04T08:40:34.597Z,1013.49
2022-10-04T08:41:34.581Z,1013.52
2022-10-04T08:42:34.595Z,1013.50
2022-10-04T08:43:34.544Z,1013.46
2022-10-04T08:44:34.556Z,1013.51
2022-10-04T08:45:34.572Z,1013.50
2022-10-04T08:46:34.588Z,1013.45
2022-10-04T08:47:34.599Z,1013.42
2022-10-04T08:48:34.550Z,1013.44
2022-10-04T08:49:34.641Z,1013.40
2022-10-04T08:50:34.527Z,1013.37
2022-10-04T08:51:34.549Z,1013.38
2022-10-04T08:52:34.576Z,1013.39
2022-10-04T08:53:34.552Z,1013.37
2022-10-04T08:54:34.452Z,1013.35
2022-10-04T08:55:34.552Z,1013.30
2022-10-04T08:56:34.434Z,1013.27
2022-10-04T08:57:34.471Z,1013.23
2022-10-04T08:58:34.406Z,1013.23
2022-10-04T08:59:34.457Z,1013.24
2022-10-04T09:00:34.473Z,1013.19
2022-10-04T09:01:34.618Z,1013.21
2022-10-04T09:02:34.438Z,1013.17
2022-10-04T09:03:34.387Z,1013.20
2022-10-04T09:04:34.399Z,1013.19
2022-10-04T09:05:34.351Z,1013.21
2022-10-04T09:06:34.388Z,1013.30
2022-10-04T09:07:43.136Z,1013.25
2022-10-04T09:08:36.121Z,1013.27
2022-10-04T09:09:34.273Z,1013.19
2022-10-04T09:10:35.070Z,1013.20
2022-10-04T09:11:34.251Z,1013.20
2022-10-04T09:12:34.226Z,1013.30
2022-10-04T09:13:34.218Z,1013.26
2022-10-04T09:14:34.209Z,1013.29
2022-10-04T09:15:34.225Z,1013.25
2022-10-04T09:16:34.190Z,1013.24
2022-10-04T09:17:34.173Z,1013.19
2022-10-04T09:18:34.163Z,1013.15
2022-10-04T09:19:34.159Z,1013.18
2022-10-04T09:20:38.617Z,1013.14
2022-10-04T09:21:34.131Z,1013.10
2022-10-04T09:22:34.126Z,1013.09
2022-10-04T09:23:34.103Z,1013.06
2022-10-04T09:24:34.084Z,1013.07
2022-10-04T09:25:34.077Z,1013.06
2022-10-04T09:26:34.076Z,1013.11
2022-10-04T09:27:54.083Z,1013.09
2022-10-04T09:28:35.101Z,1013.08
2022-10-04T09:29:34.042Z,1013.12
2022-10-04T09:30:34.023Z,1013.02
2022-10-04T09:31:34.056Z,1013.05
2022-10-04T09:32:34.018Z,1012.98
2022-10-04T09:33:33.993Z,1013.02
2022-10-04T09:34:37.481Z,1012.99
2022-10-04T09:35:33.973Z,1013.01
2022-10-04T09:36:33.958Z,1012.96
2022-10-04T09:37:33.951Z,1013.00
2022-10-04T09:38:33.964Z,1012.92
2022-10-04T09:39:33.936Z,1012.89
2022-10-04T09:40:33.935Z,1012.85
2022-10-04T09:41:34.125Z,1012.82
2022-10-04T09:42:33.915Z,1012.85
2022-10-04T09:43:33.897Z,1012.81
2022-10-04T09:44:33.880Z,1012.83
2022-10-04T09:45:33.864Z,1012.80
2022-10-04T09:46:33.919Z,1012.83
2022-10-04T09:47:33.840Z,1012.75
2022-10-04T09:48:33.844Z,1012.78
2022-10-04T09:49:33.817Z,1012.72
2022-10-04T09:50:33.833Z,1012.73
2022-10-04T09:51:33.794Z,1012.63
2022-10-04T09:52:33.780Z,1012.64
2022-10-04T09:53:33.776Z,1012.65
2022-10-04T09:54:33.834Z,1012.65
2022-10-04T09:55:33.748Z,1012.73
2022-10-04T09:56:33.744Z,1012.67
2022-10-04T09:57:33.749Z,1012.61
2022-10-04T09:58:33.721Z,1012.60
2022-10-04T09:59:33.698Z,1012.61
2022-10-04T10:00:33.700Z,1012.61
2022-10-04T10:01:33.742Z,1012.59
2022-10-04T10:02:33.761Z,1012.53
2022-10-04T10:03:33.674Z,1012.55
2022-10-04T10:04:33.663Z,1012.57
2022-10-04T10:05:33.654Z,1012.53
2022-10-04T10:06:33.626Z,1012.53
2022-10-04T10:07:33.621Z,1012.55
2022-10-04T10:08:33.601Z,1012.55
2022-10-04T10:09:33.599Z,1012.57
2022-10-04T10:10:33.589Z,1012.53
2022-10-04T10:11:33.575Z,1012.47
2022-10-04T10:12:33.673Z,1012.47
2022-10-04T10:13:33.558Z,1012.47
2022-10-04T10:14:33.571Z,1012.49
2022-10-04T10:15:33.711Z,1012.45
2022-10-04T10:16:33.541Z,1012.39
2022-10-04T10:17:33.503Z,1012.48
2022-10-04T10:18:33.509Z,1012.42
2022-10-04T10:19:33.494Z,1012.46
2022-10-04T10:20:33.486Z,1012.51
2022-10-04T10:21:33.471Z,1012.55
2022-10-04T10:22:33.473Z,1012.52
2022-10-04T10:23:33.448Z,1012.46
2022-10-04T10:24:33.430Z,1012.45
2022-10-04T10:25:33.421Z,1012.48
2022-10-04T10:26:33.419Z,1012.41
2022-10-04T10:27:33.412Z,1012.42
2022-10-04T10:28:33.416Z,1012.36
2022-10-04T10:29:33.369Z,1012.39
2022-10-04T10:30:33.371Z,1012.36
2022-10-04T10:31:33.416Z,1012.39
2022-10-04T10:32:33.356Z,1012.33
2022-10-04T10:33:33.340Z,1012.30
2022-10-04T10:34:33.326Z,1012.36
2022-10-04T10:35:33.317Z,1012.35
2022-10-04T10:36:33.301Z,1012.52
2022-10-04T10:37:33.284Z,1012.43
2022-10-04T10:38:33.298Z,1012.43
2022-10-04T10:39:33.291Z,1012.45
2022-10-04T10:40:33.247Z,1012.43
2022-10-04T10:41:33.652Z,1012.44
2022-10-04T10:42:33.230Z,1012.41
2022-10-04T10:43:33.434Z,1012.46
2022-10-04T10:44:33.216Z,1012.53
2022-10-04T10:45:33.204Z,1012.50
2022-10-04T10:46:33.236Z,1012.45
2022-10-04T10:47:33.181Z,1012.58
2022-10-04T10:48:33.172Z,1012.53
2022-10-04T10:49:33.164Z,1012.50
2022-10-04T10:50:33.158Z,1012.58
2022-10-04T10:51:33.129Z,1012.45
2022-10-04T10:52:33.130Z,1012.50
2022-10-04T10:53:33.119Z,1012.44
2022-10-04T10:54:33.109Z,1012.40
2022-10-04T10:55:33.094Z,1012.50
2022-10-04T10:56:33.085Z,1012.44
2022-10-04T10:57:33.077Z,1012.38
2022-10-04T10:58:33.063Z,1012.35
2022-10-04T10:59:33.069Z,1012.40
2022-10-04T11:00:33.041Z,1012.34
2022-10-04T11:01:33.180Z,1012.31
2022-10-04T11:02:48.851Z,1012.35
2022-10-04T11:03:34.126Z,1012.41
2022-10-04T11:04:32.995Z,1012.33
2022-10-04T11:05:32.990Z,1012.35
2022-10-04T11:06:32.976Z,1012.30
2022-10-04T11:07:32.967Z,1012.24
2022-10-04T11:08:32.938Z,1012.26
2022-10-04T11:09:32.949Z,1012.28
2022-10-04T11:10:32.930Z,1012.29
2022-10-04T11:11:32.906Z,1012.13
2022-10-04T11:12:32.917Z,1012.18
2022-10-04T11:13:32.919Z,1012.14
2022-10-04T11:14:32.900Z,1012.12
2022-10-04T11:15:33.138Z,1012.21
2022-10-04T11:16:32.904Z,1012.08
2022-10-04T11:17:32.849Z,1012.18
2022-10-04T11:18:32.844Z,1012.12
2022-10-04T11:19:32.840Z,1012.14
2022-10-04T11:20:32.845Z,1012.15
2022-10-04T11:21:33.079Z,1012.15
2022-10-04T11:22:38.086Z,1012.16
2022-10-04T11:23:33.929Z,1012.10
2022-10-04T11:24:32.787Z,1012.11
2022-10-04T11:25:32.797Z,1012.10
2022-10-04T11:26:32.758Z,1012.08
2022-10-04T11:27:32.741Z,1012.11
2022-10-04T11:28:32.761Z,1012.06
2022-10-04T11:29:32.712Z,1012.02
2022-10-04T11:30:32.754Z,1012.01
2022-10-04T11:31:32.746Z,1011.96
2022-10-04T11:32:32.694Z,1012.00
2022-10-04T11:33:32.696Z,1012.03
2022-10-04T11:34:32.672Z,1011.97
2022-10-04T11:35:32.945Z,1011.94
2022-10-04T11:36:32.664Z,1011.88
2022-10-04T11:37:32.651Z,1011.86
2022-10-04T11:38:33.056Z,1011.90
2022-10-04T11:39:34.133Z,1011.83
2022-10-04T11:40:32.642Z,1011.82
2022-10-04T11:41:32.822Z,1011.82
2022-10-04T11:42:32.627Z,1011.79
2022-10-04T11:43:32.614Z,1011.83
2022-10-04T11:44:33.049Z,1011.81
2022-10-04T11:45:32.585Z,1011.80
2022-10-04T11:46:32.584Z,1011.78
2022-10-04T11:47:32.868Z,1011.78
2022-10-04T11:48:32.516Z,1011.81
2022-10-04T11:49:32.519Z,1011.79
2022-10-04T11:50:32.990Z,1011.80
2022-10-04T11:51:32.500Z,1011.78
2022-10-04T11:52:32.467Z,1011.78
2022-10-04T11:53:32.913Z,1011.72
2022-10-04T11:54:32.456Z,1011.77
2022-10-04T11:55:32.441Z,1011.73
2022-10-04T11:56:33.122Z,1011.72
2022-10-04T11:57:32.548Z,1011.70
2022-10-04T11:58:32.430Z,1011.65
2022-10-04T11:59:32.410Z,1011.63
2022-10-04T12:00:32.814Z,1011.56
2022-10-04T12:01:32.392Z,1011.55
2022-10-04T12:02:32.921Z,1011.46
2022-10-04T12:03:32.458Z,1011.47
2022-10-04T12:04:33.022Z,1011.48
2022-10-04T12:05:32.387Z,1011.38